Address 0x55b9c8e5948dbc15fc65a7aeed6fc973bd1fe5fa

 
 
Txn Hash Method
Block
From
To
Value [Txn Fee]
0xde6a17eb44e9409a0b342341d9ba396a770b48ca92aac20008b714d788b2eef60xa56aeb38118787392021-10-18 11:39:373 mins ago0x55b9c8e5948dbc15fc65a7aeed6fc973bd1fe5faOUT 0x50a0621e5cfa139bcab947bf32efa07f0cf3cddf0 BNB0.00020498
0x47d2071ab344ff50e313fa7e831066a1d16609a24ede6c145a025299a054269d0xa56aeb38118786082021-10-18 11:33:049 mins ago0x55b9c8e5948dbc15fc65a7aeed6fc973bd1fe5faOUT 0x3317b3575c276e6b6fc74212aa0d32c1809674d60 BNB0.00026466
0xf3fabe99b6a95e16aa2d1ddf89f5ead518299e6850b7ea3243a792654365885d0xa56aeb38118784642021-10-18 11:25:5216 mins ago0x55b9c8e5948dbc15fc65a7aeed6fc973bd1fe5faOUT 0x50a0621e5cfa139bcab947bf32efa07f0cf3cddf0 BNB0.0002347326
0x30d1c7113be2d8f06054f8d35b686166682a42733871db64059f33e7b55d48290xa56aeb38118780582021-10-18 11:05:2137 mins ago0x55b9c8e5948dbc15fc65a7aeed6fc973bd1fe5faOUT 0x50a0621e5cfa139bcab947bf32efa07f0cf3cddf0 BNB0.0002093754
0x13210fc209a61e92fcb8d84fc8027e77378597155f07470d46e211bca910d7060xa56aeb38118779442021-10-18 10:59:3943 mins ago0x55b9c8e5948dbc15fc65a7aeed6fc973bd1fe5faOUT 0x50a0621e5cfa139bcab947bf32efa07f0cf3cddf0 BNB0.000238025
0x9b5b3a2ca2b4b997ab4e60e938c89a1fcacd3538fb6ffdda4ad492bceef47f690xa56aeb38118779192021-10-18 10:58:2444 mins ago0x55b9c8e5948dbc15fc65a7aeed6fc973bd1fe5faOUT 0x50a0621e5cfa139bcab947bf32efa07f0cf3cddf0 BNB0.000264615
0x163af61da4a0c37851dbe2b6b04fd03ea07ffe2be9db72b2d835af047f3d0bae0xa56aeb38118777662021-10-18 10:50:4552 mins ago0x55b9c8e5948dbc15fc65a7aeed6fc973bd1fe5faOUT 0x50a0621e5cfa139bcab947bf32efa07f0cf3cddf0 BNB0.000264615
0xcf5279a75d8f0db14684c984ae14d26e59c5e63f9ac490ba903e7edac61d020e0xa56aeb38118776582021-10-18 10:45:2157 mins ago0x55b9c8e5948dbc15fc65a7aeed6fc973bd1fe5faOUT 0x50a0621e5cfa139bcab947bf32efa07f0cf3cddf0 BNB0.00023772
0xd6ab1c0f5bfb68baabdd68650d0ade48ff1fa6aafaedad45d43e7bed0e578c910xa56aeb38118776052021-10-18 10:42:421 hr ago0x55b9c8e5948dbc15fc65a7aeed6fc973bd1fe5faOUT 0x50a0621e5cfa139bcab947bf32efa07f0cf3cddf0 BNB0.000242964
0x606d72f055ad2b7963c89e8cfdde59e03b6fdec93cbcd58d28893416ab5e97690xa56aeb38118774692021-10-18 10:35:541 hr 6 mins ago0x55b9c8e5948dbc15fc65a7aeed6fc973bd1fe5faOUT 0x50a0621e5cfa139bcab947bf32efa07f0cf3cddf0 BNB0.000695316199
0x9d3a45b7dfa6805cf5a0a5410c46c4d9581c6ce3badff2a920f000b133b401a90xa56aeb38118774022021-10-18 10:32:331 hr 10 mins ago0x55b9c8e5948dbc15fc65a7aeed6fc973bd1fe5faOUT 0x50a0621e5cfa139bcab947bf32efa07f0cf3cddf0 BNB0.0002094927
0x1b36c0820bb780865103045429b002549424256b7e28c1877bede168371c12fb0xa56aeb38118773622021-10-18 10:30:331 hr 12 mins ago0x55b9c8e5948dbc15fc65a7aeed6fc973bd1fe5faOUT 0x50a0621e5cfa139bcab947bf32efa07f0cf3cddf0 BNB0.000237895
0x6932cacd54c5452891b34ab2f4503d62486559ba8cbc8a47a5227633a4596e2a0xa56aeb38118773122021-10-18 10:28:031 hr 14 mins ago0x55b9c8e5948dbc15fc65a7aeed6fc973bd1fe5faOUT 0x50a0621e5cfa139bcab947bf32efa07f0cf3cddf0 BNB0.000238025
0x72c86584db60d49c1a7f209266dbbe7830523323a5c1c27db1e3db07f1b1cf6aTransfer118769062021-10-18 10:07:451 hr 35 mins ago0x55b9c8e5948dbc15fc65a7aeed6fc973bd1fe5faSELF0x55b9c8e5948dbc15fc65a7aeed6fc973bd1fe5fa0 BNB0.0001155
0x2379d5ff11258a2a98fd4546dbcc8f923c5bea71e0e0a260dd37a17dfd1eedf60xa56aeb38118767282021-10-18 9:58:511 hr 43 mins ago0x55b9c8e5948dbc15fc65a7aeed6fc973bd1fe5faOUT 0x50a0621e5cfa139bcab947bf32efa07f0cf3cddf0 BNB0.00024666
0xa9755c634b4b79665748c51229485b7d0ffee8397b1c2acbaf8ae2147890de410xa56aeb38118767172021-10-18 9:58:181 hr 44 mins ago0x55b9c8e5948dbc15fc65a7aeed6fc973bd1fe5faOUT 0x50a0621e5cfa139bcab947bf32efa07f0cf3cddf0 BNB0.00020498
0x304c85a8d96a86e1525c5e855986868d7e6cf4b76625ef800602caf79896e5510xa56aeb38118766872021-10-18 9:56:481 hr 45 mins ago0x55b9c8e5948dbc15fc65a7aeed6fc973bd1fe5faOUT 0x50a0621e5cfa139bcab947bf32efa07f0cf3cddf0 BNB0.000246462
0xda954b7f0b36c3fef82b596706a3f150d1de50791c088e39748fa8181193bc490xa56aeb38118766052021-10-18 9:52:421 hr 50 mins ago0x55b9c8e5948dbc15fc65a7aeed6fc973bd1fe5faOUT 0x50a0621e5cfa139bcab947bf32efa07f0cf3cddf0 BNB0.00020527
0x24370b49af2c9cc8e99eabec329bb63cf8281a83412b4e7302daf34ec7f99bfa0xa56aeb38118765992021-10-18 9:52:241 hr 50 mins ago0x55b9c8e5948dbc15fc65a7aeed6fc973bd1fe5faOUT 0x3317b3575c276e6b6fc74212aa0d32c1809674d60 BNB0.000285294
0xfbc4bbdccea461ce46f11d8b204022264b578e03c9cbece2851d34acd7062c120xa56aeb38118764512021-10-18 9:45:001 hr 57 mins ago0x55b9c8e5948dbc15fc65a7aeed6fc973bd1fe5faOUT 0x50a0621e5cfa139bcab947bf32efa07f0cf3cddf0 BNB0.000247065
0x5623d64835bd894c243602958f0254d74de6994af6dd8ec94a0e77003ea54e810xa56aeb38118763982021-10-18 9:42:212 hrs ago0x55b9c8e5948dbc15fc65a7aeed6fc973bd1fe5faOUT 0x3317b3575c276e6b6fc74212aa0d32c1809674d60 BNB0.0003573
0x521f90582eeb8961384b9ac39110b749e20a3cd5b9b52820c68c8314cb4a0f860xa56aeb38118759842021-10-18 9:21:382 hrs 21 mins ago0x55b9c8e5948dbc15fc65a7aeed6fc973bd1fe5faOUT 0x50a0621e5cfa139bcab947bf32efa07f0cf3cddf0 BNB0.000205095
0x158199bc57bec79e669e89cb51630b8d146ed0fb171a44eb9159a1da5a5b40ae0xa56aeb38118757332021-10-18 9:09:052 hrs 33 mins ago0x55b9c8e5948dbc15fc65a7aeed6fc973bd1fe5faOUT 0x50a0621e5cfa139bcab947bf32efa07f0cf3cddf0 BNB0.00020498
0x27e0abf6af520c03654ebdf69d82a10bb8d8186fc77e33b96811b8cdcef098610xa56aeb38118756002021-10-18 9:02:262 hrs 40 mins ago0x55b9c8e5948dbc15fc65a7aeed6fc973bd1fe5faOUT 0x50a0621e5cfa139bcab947bf32efa07f0cf3cddf0 BNB0.00026199
0xc515234f586f63a1686ea4845bc9cb05d3557ae25e9ed8ab712093e62591dafa0xa56aeb38118754072021-10-18 8:52:472 hrs 49 mins ago0x55b9c8e5948dbc15fc65a7aeed6fc973bd1fe5faOUT 0x50a0621e5cfa139bcab947bf32efa07f0cf3cddf0 BNB0.00023784
[ Download CSV Export 
Latest 5 internal transactions
Parent Txn Hash Block From To Value
0x4eb34d621609b958f95ab19bd19383af05ce79943962ec9f33a7679cb8964601115680312021-10-07 14:44:2010 days 20 hrs ago Disperse.app0x55b9c8e5948dbc15fc65a7aeed6fc973bd1fe5fa0.762385577540081391 BNB
0x3b4017548dfb158fb48b7c515978ab4738684c60eb16dad89c396f296bb22205115463342021-10-06 20:37:5311 days 15 hrs ago Disperse.app0x55b9c8e5948dbc15fc65a7aeed6fc973bd1fe5fa0.066794106964 BNB
0x720c77aac18fa4dfa02cb3faec0d2f563b4fe6359a9553b4c9ca409a805b9d33115131902021-10-05 16:58:3112 days 18 hrs ago Disperse.app0x55b9c8e5948dbc15fc65a7aeed6fc973bd1fe5fa0.073135009552280835 BNB
0x506bce49033446b6015d76d2dbc6715a14079c6fdacd58dfb8de1bf7233b2114114815602021-10-04 14:35:2613 days 21 hrs ago Disperse.app0x55b9c8e5948dbc15fc65a7aeed6fc973bd1fe5fa0.138443020303402115 BNB
0xa2d62401a03c74258307b14b1629ace3a5596dcfdeb3849c5159d9983f879b56113751792021-09-30 21:13:0117 days 14 hrs ago Disperse.app0x55b9c8e5948dbc15fc65a7aeed6fc973bd1fe5fa0.35 BNB
[ Download CSV Export 
Loading

Contract Name:
0 BNB

Compiler Version
0

Optimization Enabled:
0 BNB

Other Settings:
-NA-
Block Transaction Gas Used Reward
Age Block Fee Address BC Fee Address Voting Power Jailed Incoming
Block Uncle Number Difficulty Gas Used Reward
Loading
Loading
Make sure to use the "Vote Down" button for any spammy posts, and the "Vote Up" for interesting conversations.